createdAt,value
2022-10-05T00:00:13.813Z,95963.41
2022-10-05T00:03:08.803Z,95960.03
2022-10-05T00:05:55.850Z,95952.41
2022-10-05T00:08:31.876Z,95958.34
2022-10-05T00:11:20.830Z,95955.75
2022-10-05T00:14:00.824Z,95954.03
2022-10-05T00:16:48.077Z,95957.44
2022-10-05T00:19:37.893Z,95961.63
2022-10-05T00:22:36.819Z,95965.06
2022-10-05T00:25:19.875Z,95967.59
2022-10-05T00:28:07.823Z,95964.22
2022-10-05T00:30:40.942Z,95961.72
2022-10-05T00:33:27.844Z,95963.41
2022-10-05T00:36:01.865Z,95963.41
2022-10-05T00:38:48.826Z,95969.31
2022-10-05T00:41:36.894Z,95960.78
2022-10-05T00:44:48.807Z,95964.13
2022-10-05T00:47:49.804Z,95968.31
2022-10-05T00:50:41.820Z,95969.94
2022-10-05T00:53:58.838Z,95964.00
2022-10-05T00:57:13.834Z,95956.47
2022-10-05T01:00:19.933Z,95960.03
2022-10-05T01:03:10.838Z,95960.91
2022-10-05T01:06:22.832Z,95960.78
2022-10-05T01:09:32.845Z,95965.00
2022-10-05T01:12:15.892Z,95968.34
2022-10-05T01:15:07.825Z,95971.69
2022-10-05T01:18:02.834Z,95960.75
2022-10-05T01:20:51.159Z,95964.25
2022-10-05T01:24:11.841Z,95959.28
2022-10-05T01:26:58.783Z,95966.03
2022-10-05T01:30:04.828Z,95966.88
2022-10-05T01:32:51.385Z,95977.84
2022-10-05T01:35:55.847Z,95974.31
2022-10-05T01:38:41.845Z,95979.28
2022-10-05T01:41:48.817Z,95983.44
2022-10-05T01:44:31.080Z,95981.56
2022-10-05T01:47:25.829Z,95983.13
2022-10-05T01:50:04.673Z,95988.19
2022-10-05T01:53:09.843Z,95987.34
2022-10-05T01:55:52.431Z,95995.94
2022-10-05T01:58:58.837Z,95988.31
2022-10-05T02:01:50.584Z,95988.25
2022-10-05T02:05:04.160Z,95990.72
2022-10-05T02:08:03.897Z,95989.78
2022-10-05T02:11:11.864Z,95985.56
2022-10-05T02:14:25.832Z,95983.06
2022-10-05T02:17:26.852Z,95979.66
2022-10-05T02:20:17.841Z,95978.84
2022-10-05T02:22:55.965Z,95983.91
2022-10-05T02:25:45.844Z,95974.63
2022-10-05T02:28:24.979Z,95977.97
2022-10-05T02:31:22.934Z,95982.13
2022-10-05T02:33:55.925Z,95982.16
2022-10-05T02:36:44.115Z,95977.88
2022-10-05T02:39:30.866Z,95975.16
2022-10-05T02:42:36.867Z,95974.31
2022-10-05T02:45:33.911Z,95965.06
2022-10-05T02:48:19.951Z,95962.50
2022-10-05T02:51:20.851Z,95970.09
2022-10-05T02:54:16.984Z,95962.44
2022-10-05T02:57:43.880Z,95965.75
2022-10-05T03:00:29.886Z,95975.06
2022-10-05T03:03:42.877Z,95968.31
2022-10-05T03:06:35.883Z,95969.19
2022-10-05T03:09:16.343Z,95968.31
2022-10-05T03:12:18.877Z,95967.38
2022-10-05T03:15:43.082Z,95963.09
2022-10-05T03:19:01.860Z,95958.91
2022-10-05T03:22:07.873Z,95952.22
2022-10-05T03:24:54.015Z,95949.63
2022-10-05T03:27:56.959Z,95950.38
2022-10-05T03:30:37.876Z,95957.91
2022-10-05T03:33:51.787Z,95953.53
2022-10-05T03:36:58.902Z,95960.13
2022-10-05T03:39:48.068Z,95955.84
2022-10-05T03:42:45.874Z,95963.47
2022-10-05T03:45:36.988Z,95961.69
2022-10-05T03:48:35.882Z,95962.56
2022-10-05T03:51:27.965Z,95948.25
2022-10-05T03:54:50.951Z,95947.28
2022-10-05T03:57:40.898Z,95938.69
2022-10-05T04:00:45.882Z,95946.28
2022-10-05T04:03:54.906Z,95940.53
2022-10-05T04:06:49.244Z,95942.22
2022-10-05T04:09:43.011Z,95932.97
2022-10-05T04:12:36.947Z,95936.34
2022-10-05T04:15:41.102Z,95941.41
2022-10-05T04:18:32.944Z,95940.63
2022-10-05T04:21:24.961Z,95936.34
2022-10-05T04:24:19.906Z,95933.81
2022-10-05T04:27:13.033Z,95934.63
2022-10-05T04:30:18.964Z,95937.91
2022-10-05T04:32:59.036Z,95937.75
2022-10-05T04:36:11.905Z,95941.78
2022-10-05T04:38:56.951Z,95944.19
2022-10-05T04:42:03.904Z,95945.69
2022-10-05T04:45:20.940Z,95954.91
2022-10-05T04:48:46.303Z,95959.06
2022-10-05T04:52:15.117Z,95961.69
2022-10-05T04:55:26.951Z,95971.81
2022-10-05T04:58:42.663Z,95961.59
2022-10-05T05:01:47.902Z,95978.44
2022-10-05T05:04:54.950Z,95976.00
2022-10-05T05:08:02.957Z,95967.66
2022-10-05T05:11:04.946Z,95982.94
2022-10-05T05:13:53.210Z,95988.91
2022-10-05T05:16:46.267Z,95985.59
2022-10-05T05:19:29.971Z,95986.50
2022-10-05T05:22:27.890Z,95976.34
2022-10-05T05:25:32.944Z,95972.94
2022-10-05T05:28:27.034Z,95976.47
2022-10-05T05:31:23.074Z,95975.78
2022-10-05T05:34:39.973Z,95986.81
2022-10-05T05:37:35.973Z,95989.28
2022-10-05T05:40:30.965Z,95996.94
2022-10-05T05:43:18.159Z,95993.59
2022-10-05T05:46:58.388Z,95996.19
2022-10-05T05:49:38.992Z,95994.59
2022-10-05T05:52:45.007Z,95990.47
2022-10-05T05:55:30.103Z,95990.56
2022-10-05T05:58:28.989Z,95989.00
2022-10-05T06:01:25.089Z,95983.97
2022-10-05T06:04:28.999Z,95995.00
2022-10-05T06:07:30.856Z,95994.25
2022-10-05T06:10:40.016Z,95994.25
2022-10-05T06:13:50.953Z,95996.88
2022-10-05T06:16:50.528Z,95996.88
2022-10-05T06:19:33.973Z,95995.28
2022-10-05T06:22:25.975Z,95996.16
2022-10-05T06:25:49.800Z,96001.34
2022-10-05T06:28:38.068Z,96000.59
2022-10-05T06:31:33.080Z,95988.81
2022-10-05T06:34:45.972Z,95994.00
2022-10-05T06:38:02.021Z,95984.06
2022-10-05T06:41:18.946Z,95989.31
2022-10-05T06:44:03.976Z,95976.75
2022-10-05T06:47:18.969Z,95978.56
2022-10-05T06:50:21.980Z,95971.09
2022-10-05T06:53:23.061Z,95970.28
2022-10-05T06:56:32.013Z,95972.91
2022-10-05T06:59:11.116Z,95979.84
2022-10-05T07:02:11.072Z,95984.22
2022-10-05T07:05:11.132Z,95992.00
2022-10-05T07:08:04.016Z,95996.38
2022-10-05T07:10:58.008Z,96002.38
2022-10-05T07:14:28.020Z,96007.63
2022-10-05T07:18:00.003Z,95997.63
2022-10-05T07:20:59.006Z,95994.38
2022-10-05T07:24:13.973Z,95991.09
2022-10-05T07:27:18.013Z,95994.63
2022-10-05T07:29:58.993Z,95990.50
2022-10-05T07:32:57.996Z,95994.78
2022-10-05T07:36:38.020Z,96001.66
2022-10-05T07:39:58.457Z,95997.50
2022-10-05T07:42:48.917Z,96000.13
2022-10-05T07:46:14.058Z,95999.38
2022-10-05T07:48:57.078Z,95993.56
2022-10-05T07:51:54.022Z,95996.19
2022-10-05T07:54:56.016Z,96003.06
2022-10-05T07:57:56.027Z,95997.22
2022-10-05T08:00:39.021Z,95998.16
2022-10-05T08:03:51.001Z,96004.19
2022-10-05T08:07:18.046Z,95998.44
2022-10-05T08:10:24.096Z,95990.09
2022-10-05T08:13:08.017Z,95986.84
2022-10-05T08:15:53.815Z,95994.63
2022-10-05T08:18:49.020Z,95995.63
2022-10-05T08:21:43.068Z,95995.88
2022-10-05T08:24:50.017Z,95994.38
2022-10-05T08:27:39.072Z,95997.91
2022-10-05T08:30:22.018Z,95992.91
2022-10-05T08:33:08.073Z,95989.56
2022-10-05T08:35:52.022Z,95984.56
2022-10-05T08:38:45.000Z,95982.94
2022-10-05T08:41:43.021Z,95983.81
2022-10-05T08:45:04.732Z,95984.78
2022-10-05T08:47:57.017Z,95975.47
2022-10-05T08:50:58.066Z,95958.47
2022-10-05T08:53:52.333Z,95961.91
2022-10-05T08:57:14.999Z,95974.72
2022-10-05T09:00:00.242Z,95964.50
2022-10-05T09:03:05.024Z,95959.41
2022-10-05T09:05:41.028Z,95959.41
2022-10-05T09:08:54.076Z,95956.84
2022-10-05T09:11:37.653Z,95968.78
2022-10-05T09:15:01.586Z,95965.34
2022-10-05T09:18:11.163Z,95964.50
2022-10-05T09:21:08.021Z,95972.16
2022-10-05T09:23:50.036Z,95973.84
2022-10-05T09:26:39.094Z,95970.41
2022-10-05T09:29:44.016Z,95973.84
2022-10-05T09:32:58.171Z,95977.25
2022-10-05T09:35:59.028Z,95967.88
2022-10-05T09:38:51.104Z,95957.63
2022-10-05T09:42:05.033Z,95961.88
2022-10-05T09:45:31.042Z,95967.84
2022-10-05T09:48:33.183Z,95965.25
2022-10-05T09:51:35.034Z,95964.41
2022-10-05T09:54:45.373Z,95973.75
2022-10-05T09:57:59.065Z,95968.59
2022-10-05T10:00:38.221Z,95963.38
2022-10-05T10:04:02.069Z,95968.38
2022-10-05T10:07:28.065Z,95966.66
2022-10-05T10:10:47.049Z,95970.06
2022-10-05T10:13:38.152Z,95973.44
2022-10-05T10:17:02.070Z,95966.59
2022-10-05T10:19:48.071Z,95970.88
2022-10-05T10:22:57.053Z,95965.78
2022-10-05T10:25:45.156Z,95969.19
2022-10-05T10:28:57.028Z,95950.38
2022-10-05T10:31:45.392Z,95946.94
2022-10-05T10:35:05.045Z,95931.56
2022-10-05T10:38:16.074Z,95943.53
2022-10-05T10:40:58.114Z,95942.66
2022-10-05T10:44:23.107Z,95931.56
2022-10-05T10:47:33.061Z,95928.97
2022-10-05T10:51:01.056Z,95929.81
2022-10-05T10:54:25.068Z,95920.38
2022-10-05T10:57:18.072Z,95922.06
2022-10-05T11:00:11.060Z,95932.31
2022-10-05T11:03:09.124Z,95943.34
2022-10-05T11:06:40.070Z,95933.91
2022-10-05T11:09:39.068Z,95918.53
2022-10-05T11:12:47.078Z,95928.78
2022-10-05T11:16:23.096Z,95925.34
2022-10-05T11:19:40.503Z,95926.13
2022-10-05T11:22:48.074Z,95907.28
2022-10-05T11:25:56.076Z,95908.97
2022-10-05T11:29:47.077Z,95910.59
2022-10-05T11:33:21.060Z,95912.19
2022-10-05T11:36:24.077Z,95912.03
2022-10-05T11:39:11.217Z,95913.72
2022-10-05T11:42:35.098Z,95917.06
2022-10-05T11:45:43.092Z,95917.81
2022-10-05T11:48:37.211Z,95929.72
2022-10-05T11:51:49.285Z,95937.44
2022-10-05T11:54:22.183Z,95930.50
2022-10-05T11:57:15.106Z,95936.53
2022-10-05T12:00:01.225Z,95935.66
2022-10-05T12:03:22.227Z,95946.81
2022-10-05T12:06:18.152Z,95943.34
2022-10-05T12:09:43.093Z,95936.59
2022-10-05T12:12:33.111Z,95941.72
2022-10-05T12:15:36.118Z,95945.13
2022-10-05T12:18:22.194Z,95946.81
2022-10-05T12:21:14.095Z,95942.56
2022-10-05T12:24:03.225Z,95946.06
2022-10-05T12:27:02.129Z,95941.78
2022-10-05T12:29:42.178Z,95945.22
2022-10-05T12:32:31.087Z,95938.41
2022-10-05T12:35:47.402Z,95942.72
2022-10-05T12:38:47.110Z,95943.56
2022-10-05T12:41:40.120Z,95942.72
2022-10-05T12:44:42.116Z,95950.47
2022-10-05T12:47:51.520Z,95949.63
2022-10-05T12:50:54.104Z,95950.47
2022-10-05T12:54:17.132Z,95953.94
2022-10-05T12:57:43.114Z,95946.25
2022-10-05T13:00:37.202Z,95945.41
2022-10-05T13:03:43.297Z,95940.28
2022-10-05T13:06:33.238Z,95942.00
2022-10-05T13:09:46.147Z,95944.59
2022-10-05T13:12:51.559Z,95941.19
2022-10-05T13:15:38.133Z,95944.59
2022-10-05T13:18:36.156Z,95944.59
2022-10-05T13:21:41.144Z,95937.75
2022-10-05T13:25:06.203Z,95931.50
2022-10-05T13:28:15.179Z,95936.66
2022-10-05T13:31:18.178Z,95935.78
2022-10-05T13:34:14.414Z,95938.38
2022-10-05T13:37:10.119Z,95935.75
2022-10-05T13:40:08.241Z,95940.88
2022-10-05T13:43:19.155Z,95936.59
2022-10-05T13:46:08.197Z,95936.59
2022-10-05T13:49:13.137Z,95941.72
2022-10-05T13:52:15.166Z,95941.72
2022-10-05T13:55:24.141Z,95938.31
2022-10-05T13:58:26.162Z,95932.31
2022-10-05T14:01:20.147Z,95940.88
2022-10-05T14:04:30.246Z,95942.66
2022-10-05T14:07:39.175Z,95944.41
2022-10-05T14:10:27.152Z,95944.44
2022-10-05T14:13:37.155Z,95937.63
2022-10-05T14:16:33.182Z,95936.84
2022-10-05T14:19:12.278Z,95938.53
2022-10-05T14:22:23.157Z,95931.72
2022-10-05T14:25:08.264Z,95928.31
2022-10-05T14:28:06.551Z,95929.22
2022-10-05T14:30:40.560Z,95925.81
2022-10-05T14:33:40.152Z,95929.28
2022-10-05T14:36:25.679Z,95920.78
2022-10-05T14:39:07.368Z,95923.34
2022-10-05T14:42:02.182Z,95921.66
2022-10-05T14:44:56.298Z,95920.81
2022-10-05T14:48:06.157Z,95917.44
2022-10-05T14:51:02.185Z,95920.03
2022-10-05T14:53:54.248Z,95918.34
2022-10-05T14:57:01.199Z,95920.06
2022-10-05T15:00:06.245Z,95925.22
2022-10-05T15:03:24.189Z,95928.69
2022-10-05T15:06:01.770Z,95916.75
2022-10-05T15:08:59.179Z,95920.19
2022-10-05T15:11:58.203Z,95909.09
2022-10-05T15:14:50.160Z,95910.81
2022-10-05T15:17:28.408Z,95912.53
2022-10-05T15:20:31.179Z,95917.69
2022-10-05T15:23:39.195Z,95920.28
2022-10-05T15:26:59.189Z,95908.38
2022-10-05T15:29:58.217Z,95905.84
2022-10-05T15:32:41.592Z,95910.97
2022-10-05T15:35:52.214Z,95904.16
2022-10-05T15:38:43.213Z,95908.44
2022-10-05T15:42:03.201Z,95916.16
2022-10-05T15:44:58.216Z,95905.94
2022-10-05T15:48:05.181Z,95897.41
2022-10-05T15:51:17.215Z,95897.47
2022-10-05T15:54:32.185Z,95900.06
2022-10-05T15:57:25.305Z,95901.78
2022-10-05T16:00:19.204Z,95898.41
2022-10-05T16:03:30.283Z,95905.25
2022-10-05T16:06:49.188Z,95912.94
2022-10-05T16:09:34.300Z,95907.00
2022-10-05T16:12:34.188Z,95913.88
2022-10-05T16:15:42.693Z,95909.63
2022-10-05T16:19:17.226Z,95907.97
2022-10-05T16:22:10.213Z,95913.13
2022-10-05T16:25:33.222Z,95904.63
2022-10-05T16:28:48.286Z,95901.22
2022-10-05T16:32:01.215Z,95911.47
2022-10-05T16:35:14.242Z,95903.78
2022-10-05T16:38:31.216Z,95909.75
2022-10-05T16:41:35.229Z,95909.78
2022-10-05T16:44:43.259Z,95910.66
2022-10-05T16:48:01.330Z,95912.38
2022-10-05T16:51:08.235Z,95918.38
2022-10-05T16:54:18.382Z,95914.13
2022-10-05T16:57:09.235Z,95922.66
2022-10-05T17:00:28.225Z,95925.22
2022-10-05T17:03:27.225Z,95924.38
2022-10-05T17:06:15.375Z,95924.38
2022-10-05T17:09:23.253Z,95920.16
2022-10-05T17:12:11.299Z,95916.75
2022-10-05T17:15:39.293Z,95915.91
2022-10-05T17:18:57.232Z,95915.88
2022-10-05T17:22:12.253Z,95909.94
2022-10-05T17:25:11.243Z,95909.09
2022-10-05T17:28:21.505Z,95912.53
2022-10-05T17:31:22.296Z,95909.09
2022-10-05T17:34:21.326Z,95916.78
2022-10-05T17:37:45.275Z,95913.38
2022-10-05T17:40:49.272Z,95910.81
2022-10-05T17:43:47.247Z,95902.31
2022-10-05T17:46:57.253Z,95908.28
2022-10-05T17:50:17.277Z,95909.13
2022-10-05T17:54:10.260Z,95907.44
2022-10-05T17:57:02.242Z,95907.44
2022-10-05T18:00:04.247Z,95910.00
2022-10-05T18:02:40.650Z,95908.31
2022-10-05T18:05:44.304Z,95906.59
2022-10-05T18:08:40.254Z,95908.28
2022-10-05T18:11:40.282Z,95910.03
2022-10-05T18:14:31.360Z,95900.66
2022-10-05T18:17:20.291Z,95898.06
2022-10-05T18:20:26.267Z,95911.72
2022-10-05T18:23:13.279Z,95906.59
2022-10-05T18:25:52.367Z,95907.47
2022-10-05T18:28:45.317Z,95906.63
2022-10-05T18:31:45.326Z,95908.31
2022-10-05T18:34:46.272Z,95900.63
2022-10-05T18:37:54.312Z,95902.31
2022-10-05T18:41:42.285Z,95904.03
2022-10-05T18:44:40.290Z,95905.75
2022-10-05T18:47:36.285Z,95905.75
2022-10-05T18:50:41.286Z,95896.41
2022-10-05T18:53:27.322Z,95898.94
2022-10-05T18:56:26.275Z,95895.53
2022-10-05T18:59:34.276Z,95897.22
2022-10-05T19:02:50.411Z,95892.97
2022-10-05T19:06:00.286Z,95898.94
2022-10-05T19:09:05.289Z,95892.97
2022-10-05T19:12:27.296Z,95897.22
2022-10-05T19:15:33.310Z,95895.50
2022-10-05T19:18:40.319Z,95895.53
2022-10-05T19:21:42.288Z,95898.94
2022-10-05T19:24:44.284Z,95894.66
2022-10-05T19:27:46.284Z,95897.22
2022-10-05T19:30:40.287Z,95893.81
2022-10-05T19:33:29.340Z,95893.81
2022-10-05T19:36:38.300Z,95888.69
2022-10-05T19:39:30.282Z,95900.63
2022-10-05T19:43:05.315Z,95898.09
2022-10-05T19:46:01.347Z,95892.09
2022-10-05T19:48:49.377Z,95899.78
2022-10-05T19:51:39.399Z,95893.81
2022-10-05T19:54:29.765Z,95899.78
2022-10-05T19:57:24.314Z,95904.03
2022-10-05T20:00:03.783Z,95898.06
2022-10-05T20:02:50.361Z,95898.91
2022-10-05T20:05:24.379Z,95901.47
2022-10-05T20:08:12.300Z,95897.22
2022-10-05T20:10:52.312Z,95898.06
2022-10-05T20:13:41.310Z,95892.13
2022-10-05T20:16:50.322Z,95893.81
2022-10-05T20:19:43.314Z,95904.88
2022-10-05T20:22:46.983Z,95901.47
2022-10-05T20:25:35.310Z,95904.03
2022-10-05T20:28:15.393Z,95911.69
2022-10-05T20:31:09.362Z,95915.97
2022-10-05T20:33:56.310Z,95914.25
2022-10-05T20:36:36.353Z,95906.59
2022-10-05T20:39:31.346Z,95908.31
2022-10-05T20:42:25.354Z,95902.31
2022-10-05T20:45:13.314Z,95906.56
2022-10-05T20:47:47.387Z,95915.09
2022-10-05T20:50:34.333Z,95921.91
2022-10-05T20:53:11.605Z,95919.34
2022-10-05T20:55:58.347Z,95912.53
2022-10-05T20:58:31.711Z,95915.94
2022-10-05T21:01:29.381Z,95909.97
2022-10-05T21:04:06.855Z,95909.97
2022-10-05T21:06:53.335Z,95915.09
2022-10-05T21:09:27.426Z,95908.28
2022-10-05T21:12:14.337Z,95912.53
2022-10-05T21:14:47.516Z,95915.09
2022-10-05T21:17:34.365Z,95921.03
2022-10-05T21:20:14.405Z,95912.53
2022-10-05T21:23:08.356Z,95915.94
2022-10-05T21:25:55.349Z,95926.13
2022-10-05T21:28:28.735Z,95938.91
2022-10-05T21:31:16.433Z,95938.88
2022-10-05T21:33:49.425Z,95932.06
2022-10-05T21:36:36.358Z,95934.63
2022-10-05T21:39:16.345Z,95928.66
2022-10-05T21:42:10.349Z,95931.22
2022-10-05T21:44:57.353Z,95932.88
2022-10-05T21:47:37.364Z,95932.03
2022-10-05T21:50:24.366Z,95937.13
2022-10-05T21:53:04.370Z,95942.22
2022-10-05T21:55:57.690Z,95932.88
2022-10-05T21:58:34.422Z,95935.41
2022-10-05T22:01:22.781Z,95941.34
2022-10-05T22:03:56.996Z,95928.59
2022-10-05T22:06:43.365Z,95943.03
2022-10-05T22:09:23.378Z,95941.34
2022-10-05T22:12:17.379Z,95935.38
2022-10-05T22:15:12.357Z,95933.66
2022-10-05T22:18:06.365Z,95937.91
2022-10-05T22:20:53.364Z,95936.19
2022-10-05T22:23:26.449Z,95942.13
2022-10-05T22:26:15.387Z,95935.34
2022-10-05T22:28:57.378Z,95938.69
2022-10-05T22:31:45.437Z,95943.75
2022-10-05T22:34:25.399Z,95941.19
2022-10-05T22:37:13.377Z,95936.09
2022-10-05T22:39:48.288Z,95939.44
2022-10-05T22:42:35.369Z,95945.38
2022-10-05T22:45:08.460Z,95945.34
2022-10-05T22:47:55.391Z,95937.69
2022-10-05T22:50:28.472Z,95945.31
2022-10-05T22:53:15.414Z,95939.31
2022-10-05T22:55:48.470Z,95942.72
2022-10-05T22:58:35.441Z,95940.16
2022-10-05T23:01:14.538Z,95947.72
2022-10-05T23:04:03.410Z,95946.03
2022-10-05T23:06:37.509Z,95954.50
2022-10-05T23:09:24.381Z,95944.28
2022-10-05T23:12:04.406Z,95954.44
2022-10-05T23:14:58.385Z,95950.13
2022-10-05T23:17:45.427Z,95955.19
2022-10-05T23:20:18.502Z,95950.06
2022-10-05T23:23:06.375Z,95951.69
2022-10-05T23:25:46.397Z,95945.75
2022-10-05T23:28:34.604Z,95952.50
2022-10-05T23:31:13.493Z,95948.25
2022-10-05T23:34:00.401Z,95947.38
2022-10-05T23:36:42.408Z,95954.13
2022-10-05T23:39:36.407Z,95944.81
2022-10-05T23:42:23.424Z,95948.19
2022-10-05T23:44:56.521Z,95948.19
2022-10-05T23:47:43.428Z,95946.47
2022-10-05T23:50:16.641Z,95940.53
2022-10-05T23:53:03.417Z,95952.41
2022-10-05T23:55:36.463Z,95955.78
2022-10-05T23:58:23.413Z,95947.28
